sensor_id;sensor_type;location;lat;lon;timestamp;P1;durP1;ratioP1;P2;durP2;ratioP2
27209;SDS011;14721;42.668;23.386;2023-04-24T00:01:42;5.87;;;3.83;;
27209;SDS011;14721;42.668;23.386;2023-04-24T00:04:08;6.07;;;4.07;;
27209;SDS011;14721;42.668;23.386;2023-04-24T00:06:36;8.07;;;4.00;;
27209;SDS011;14721;42.668;23.386;2023-04-24T00:09:05;7.23;;;3.80;;
27209;SDS011;14721;42.668;23.386;2023-04-24T00:11:30;6.83;;;3.67;;
27209;SDS011;14721;42.668;23.386;2023-04-24T00:13:56;8.10;;;3.63;;
27209;SDS011;14721;42.668;23.386;2023-04-24T00:16:22;5.93;;;3.83;;
27209;SDS011;14721;42.668;23.386;2023-04-24T00:18:48;6.07;;;3.33;;
27209;SDS011;14721;42.668;23.386;2023-04-24T00:21:14;5.63;;;3.13;;
27209;SDS011;14721;42.668;23.386;2023-04-24T00:23:43;6.10;;;3.63;;
27209;SDS011;14721;42.668;23.386;2023-04-24T00:26:09;9.77;;;3.80;;
27209;SDS011;14721;42.668;23.386;2023-04-24T00:28:35;5.53;;;3.27;;
27209;SDS011;14721;42.668;23.386;2023-04-24T00:31:00;6.00;;;3.13;;
27209;SDS011;14721;42.668;23.386;2023-04-24T00:33:26;5.70;;;3.30;;
27209;SDS011;14721;42.668;23.386;2023-04-24T00:35:51;6.97;;;3.33;;
27209;SDS011;14721;42.668;23.386;2023-04-24T00:38:17;7.87;;;4.13;;
27209;SDS011;14721;42.668;23.386;2023-04-24T00:40:43;9.07;;;3.77;;
27209;SDS011;14721;42.668;23.386;2023-04-24T00:43:09;9.37;;;4.30;;
27209;SDS011;14721;42.668;23.386;2023-04-24T00:45:35;8.60;;;3.87;;
27209;SDS011;14721;42.668;23.386;2023-04-24T00:48:01;8.33;;;4.20;;
27209;SDS011;14721;42.668;23.386;2023-04-24T00:50:27;8.60;;;3.70;;
27209;SDS011;14721;42.668;23.386;2023-04-24T00:52:53;7.93;;;4.27;;
27209;SDS011;14721;42.668;23.386;2023-04-24T00:55:19;6.70;;;4.00;;
27209;SDS011;14721;42.668;23.386;2023-04-24T00:57:45;11.23;;;3.70;;
27209;SDS011;14721;42.668;23.386;2023-04-24T01:00:12;6.80;;;3.40;;
27209;SDS011;14721;42.668;23.386;2023-04-24T01:02:39;5.43;;;3.20;;
27209;SDS011;14721;42.668;23.386;2023-04-24T01:05:08;9.73;;;3.77;;
27209;SDS011;14721;42.668;23.386;2023-04-24T01:07:34;7.23;;;2.70;;
27209;SDS011;14721;42.668;23.386;2023-04-24T01:10:00;8.07;;;3.63;;
27209;SDS011;14721;42.668;23.386;2023-04-24T01:12:26;5.87;;;3.43;;
27209;SDS011;14721;42.668;23.386;2023-04-24T01:14:52;8.80;;;3.20;;
27209;SDS011;14721;42.668;23.386;2023-04-24T01:17:17;9.57;;;4.10;;
27209;SDS011;14721;42.668;23.386;2023-04-24T01:19:43;7.17;;;3.63;;
27209;SDS011;14721;42.668;23.386;2023-04-24T01:22:15;7.57;;;3.83;;
27209;SDS011;14721;42.668;23.386;2023-04-24T01:24:41;7.27;;;3.83;;
27209;SDS011;14721;42.668;23.386;2023-04-24T01:27:08;10.00;;;3.37;;
27209;SDS011;14721;42.668;23.386;2023-04-24T01:29:35;6.97;;;3.70;;
27209;SDS011;14721;42.668;23.386;2023-04-24T01:32:02;10.00;;;4.80;;
27209;SDS011;14721;42.668;23.386;2023-04-24T01:34:28;6.60;;;4.10;;
27209;SDS011;14721;42.668;23.386;2023-04-24T01:36:54;12.67;;;4.07;;
27209;SDS011;14721;42.668;23.386;2023-04-24T01:39:21;8.33;;;4.73;;
27209;SDS011;14721;42.668;23.386;2023-04-24T01:41:48;7.30;;;3.87;;
27209;SDS011;14721;42.668;23.386;2023-04-24T01:44:15;9.20;;;4.33;;
27209;SDS011;14721;42.668;23.386;2023-04-24T01:46:41;8.50;;;4.40;;
27209;SDS011;14721;42.668;23.386;2023-04-24T01:49:07;10.27;;;4.43;;
27209;SDS011;14721;42.668;23.386;2023-04-24T01:51:32;9.90;;;5.03;;
27209;SDS011;14721;42.668;23.386;2023-04-24T01:53:58;5.77;;;3.70;;
27209;SDS011;14721;42.668;23.386;2023-04-24T01:56:23;7.67;;;4.00;;
27209;SDS011;14721;42.668;23.386;2023-04-24T01:58:50;10.73;;;4.83;;
27209;SDS011;14721;42.668;23.386;2023-04-24T02:01:19;11.53;;;4.77;;
27209;SDS011;14721;42.668;23.386;2023-04-24T02:03:46;9.17;;;4.97;;
27209;SDS011;14721;42.668;23.386;2023-04-24T02:06:12;7.90;;;4.53;;
27209;SDS011;14721;42.668;23.386;2023-04-24T02:08:37;9.90;;;5.30;;
27209;SDS011;14721;42.668;23.386;2023-04-24T02:11:03;7.63;;;4.67;;
27209;SDS011;14721;42.668;23.386;2023-04-24T02:13:28;7.90;;;4.90;;
27209;SDS011;14721;42.668;23.386;2023-04-24T02:15:54;11.30;;;5.17;;
27209;SDS011;14721;42.668;23.386;2023-04-24T02:18:20;9.90;;;5.10;;
27209;SDS011;14721;42.668;23.386;2023-04-24T02:20:45;13.20;;;5.37;;
27209;SDS011;14721;42.668;23.386;2023-04-24T02:23:11;9.17;;;5.03;;
27209;SDS011;14721;42.668;23.386;2023-04-24T02:25:38;7.07;;;4.80;;
27209;SDS011;14721;42.668;23.386;2023-04-24T02:28:03;8.77;;;4.80;;
27209;SDS011;14721;42.668;23.386;2023-04-24T02:30:29;7.00;;;4.47;;
27209;SDS011;14721;42.668;23.386;2023-04-24T02:32:54;8.77;;;5.20;;
27209;SDS011;14721;42.668;23.386;2023-04-24T02:35:20;12.80;;;4.50;;
27209;SDS011;14721;42.668;23.386;2023-04-24T02:37:45;8.27;;;4.63;;
27209;SDS011;14721;42.668;23.386;2023-04-24T02:40:11;7.47;;;4.60;;
27209;SDS011;14721;42.668;23.386;2023-04-24T02:42:37;9.20;;;4.60;;
27209;SDS011;14721;42.668;23.386;2023-04-24T02:45:02;8.27;;;5.03;;
27209;SDS011;14721;42.668;23.386;2023-04-24T02:47:28;8.33;;;4.70;;
27209;SDS011;14721;42.668;23.386;2023-04-24T02:49:54;9.40;;;5.13;;
27209;SDS011;14721;42.668;23.386;2023-04-24T02:52:19;12.93;;;4.97;;
27209;SDS011;14721;42.668;23.386;2023-04-24T02:54:45;8.87;;;4.47;;
27209;SDS011;14721;42.668;23.386;2023-04-24T02:57:11;10.13;;;5.27;;
27209;SDS011;14721;42.668;23.386;2023-04-24T02:59:36;10.23;;;5.23;;
27209;SDS011;14721;42.668;23.386;2023-04-24T03:02:02;10.40;;;4.93;;
27209;SDS011;14721;42.668;23.386;2023-04-24T03:04:27;10.10;;;5.97;;
27209;SDS011;14721;42.668;23.386;2023-04-24T03:06:53;7.90;;;4.87;;
27209;SDS011;14721;42.668;23.386;2023-04-24T03:09:20;9.33;;;5.00;;
27209;SDS011;14721;42.668;23.386;2023-04-24T03:11:46;10.93;;;5.97;;
27209;SDS011;14721;42.668;23.386;2023-04-24T03:14:12;9.73;;;5.03;;
27209;SDS011;14721;42.668;23.386;2023-04-24T03:16:37;7.73;;;5.10;;
27209;SDS011;14721;42.668;23.386;2023-04-24T03:19:03;10.13;;;4.67;;
27209;SDS011;14721;42.668;23.386;2023-04-24T03:21:29;10.40;;;5.10;;
27209;SDS011;14721;42.668;23.386;2023-04-24T03:23:54;11.10;;;5.17;;
27209;SDS011;14721;42.668;23.386;2023-04-24T03:26:20;9.17;;;5.03;;
27209;SDS011;14721;42.668;23.386;2023-04-24T03:28:45;10.60;;;5.03;;
27209;SDS011;14721;42.668;23.386;2023-04-24T03:31:11;10.80;;;4.83;;
27209;SDS011;14721;42.668;23.386;2023-04-24T03:33:36;8.67;;;5.23;;
27209;SDS011;14721;42.668;23.386;2023-04-24T03:36:02;11.70;;;6.00;;
27209;SDS011;14721;42.668;23.386;2023-04-24T03:38:28;12.10;;;5.73;;
27209;SDS011;14721;42.668;23.386;2023-04-24T03:40:53;8.93;;;5.33;;
27209;SDS011;14721;42.668;23.386;2023-04-24T03:43:19;9.07;;;4.80;;
27209;SDS011;14721;42.668;23.386;2023-04-24T03:45:44;9.57;;;5.20;;
27209;SDS011;14721;42.668;23.386;2023-04-24T03:48:10;9.53;;;5.43;;
27209;SDS011;14721;42.668;23.386;2023-04-24T03:50:35;13.40;;;5.57;;
27209;SDS011;14721;42.668;23.386;2023-04-24T03:53:01;9.63;;;5.13;;
27209;SDS011;14721;42.668;23.386;2023-04-24T03:55:26;8.90;;;5.40;;
27209;SDS011;14721;42.668;23.386;2023-04-24T03:57:52;15.13;;;5.43;;
27209;SDS011;14721;42.668;23.386;2023-04-24T04:00:21;10.90;;;5.30;;
27209;SDS011;14721;42.668;23.386;2023-04-24T04:02:46;10.33;;;5.43;;
27209;SDS011;14721;42.668;23.386;2023-04-24T04:05:12;8.67;;;5.97;;
27209;SDS011;14721;42.668;23.386;2023-04-24T04:07:38;12.00;;;5.70;;
27209;SDS011;14721;42.668;23.386;2023-04-24T04:10:03;11.60;;;5.70;;
27209;SDS011;14721;42.668;23.386;2023-04-24T04:12:29;10.70;;;5.10;;
27209;SDS011;14721;42.668;23.386;2023-04-24T04:14:55;9.33;;;4.43;;
27209;SDS011;14721;42.668;23.386;2023-04-24T04:17:21;8.90;;;4.80;;
27209;SDS011;14721;42.668;23.386;2023-04-24T04:19:46;6.93;;;4.83;;
27209;SDS011;14721;42.668;23.386;2023-04-24T04:22:15;7.77;;;3.93;;
27209;SDS011;14721;42.668;23.386;2023-04-24T04:24:40;9.33;;;4.30;;
27209;SDS011;14721;42.668;23.386;2023-04-24T04:27:06;6.93;;;4.07;;
27209;SDS011;14721;42.668;23.386;2023-04-24T04:29:31;7.33;;;3.70;;
27209;SDS011;14721;42.668;23.386;2023-04-24T04:31:57;12.20;;;5.17;;
27209;SDS011;14721;42.668;23.386;2023-04-24T04:34:23;10.37;;;4.57;;
27209;SDS011;14721;42.668;23.386;2023-04-24T04:36:49;6.83;;;3.50;;
27209;SDS011;14721;42.668;23.386;2023-04-24T04:39:15;8.03;;;3.83;;
27209;SDS011;14721;42.668;23.386;2023-04-24T04:41:41;6.80;;;4.07;;
27209;SDS011;14721;42.668;23.386;2023-04-24T04:44:07;8.17;;;3.90;;
27209;SDS011;14721;42.668;23.386;2023-04-24T04:46:34;11.93;;;4.20;;
27209;SDS011;14721;42.668;23.386;2023-04-24T04:49:02;7.40;;;4.03;;
27209;SDS011;14721;42.668;23.386;2023-04-24T04:51:28;6.43;;;3.60;;
27209;SDS011;14721;42.668;23.386;2023-04-24T04:53:53;14.57;;;5.40;;
27209;SDS011;14721;42.668;23.386;2023-04-24T04:56:19;8.93;;;4.10;;
27209;SDS011;14721;42.668;23.386;2023-04-24T04:58:44;8.90;;;4.87;;
27209;SDS011;14721;42.668;23.386;2023-04-24T05:01:10;8.50;;;4.33;;
27209;SDS011;14721;42.668;23.386;2023-04-24T05:03:35;7.00;;;4.03;;
27209;SDS011;14721;42.668;23.386;2023-04-24T05:06:01;6.27;;;4.13;;
27209;SDS011;14721;42.668;23.386;2023-04-24T05:08:29;7.00;;;3.40;;
27209;SDS011;14721;42.668;23.386;2023-04-24T05:10:55;6.73;;;4.30;;
27209;SDS011;14721;42.668;23.386;2023-04-24T05:13:20;9.10;;;4.00;;
27209;SDS011;14721;42.668;23.386;2023-04-24T05:15:46;11.97;;;4.57;;
27209;SDS011;14721;42.668;23.386;2023-04-24T05:18:11;8.50;;;4.50;;
27209;SDS011;14721;42.668;23.386;2023-04-24T05:20:37;8.40;;;4.00;;
27209;SDS011;14721;42.668;23.386;2023-04-24T05:23:02;6.43;;;4.17;;
27209;SDS011;14721;42.668;23.386;2023-04-24T05:25:28;8.90;;;4.23;;
27209;SDS011;14721;42.668;23.386;2023-04-24T05:27:53;8.37;;;4.33;;
27209;SDS011;14721;42.668;23.386;2023-04-24T05:30:19;10.83;;;4.93;;
27209;SDS011;14721;42.668;23.386;2023-04-24T05:32:45;9.10;;;4.40;;
27209;SDS011;14721;42.668;23.386;2023-04-24T05:35:11;10.27;;;5.10;;
27209;SDS011;14721;42.668;23.386;2023-04-24T05:37:36;13.13;;;4.80;;
27209;SDS011;14721;42.668;23.386;2023-04-24T05:40:02;10.40;;;5.33;;
27209;SDS011;14721;42.668;23.386;2023-04-24T05:42:30;11.43;;;4.97;;
27209;SDS011;14721;42.668;23.386;2023-04-24T05:44:56;10.63;;;5.50;;
27209;SDS011;14721;42.668;23.386;2023-04-24T05:47:21;9.47;;;5.80;;
27209;SDS011;14721;42.668;23.386;2023-04-24T05:49:47;12.63;;;5.27;;
27209;SDS011;14721;42.668;23.386;2023-04-24T05:52:13;14.70;;;5.80;;
27209;SDS011;14721;42.668;23.386;2023-04-24T05:54:38;14.63;;;5.90;;
27209;SDS011;14721;42.668;23.386;2023-04-24T05:57:04;8.32;;;4.63;;
27209;SDS011;14721;42.668;23.386;2023-04-24T05:59:41;8.82;;;5.53;;
27209;SDS011;14721;42.668;23.386;2023-04-24T06:02:07;12.43;;;6.07;;
27209;SDS011;14721;42.668;23.386;2023-04-24T06:04:32;14.48;;;6.25;;
27209;SDS011;14721;42.668;23.386;2023-04-24T06:06:58;13.15;;;5.97;;
27209;SDS011;14721;42.668;23.386;2023-04-24T06:09:25;8.60;;;5.75;;
27209;SDS011;14721;42.668;23.386;2023-04-24T06:11:51;8.73;;;4.78;;
27209;SDS011;14721;42.668;23.386;2023-04-24T06:14:18;8.80;;;5.15;;
27209;SDS011;14721;42.668;23.386;2023-04-24T06:16:44;9.13;;;5.45;;
27209;SDS011;14721;42.668;23.386;2023-04-24T06:19:10;9.70;;;5.53;;
27209;SDS011;14721;42.668;23.386;2023-04-24T06:21:35;11.80;;;5.72;;
27209;SDS011;14721;42.668;23.386;2023-04-24T06:24:01;10.35;;;5.88;;
27209;SDS011;14721;42.668;23.386;2023-04-24T06:26:27;10.73;;;5.50;;
27209;SDS011;14721;42.668;23.386;2023-04-24T06:28:52;11.82;;;5.50;;
27209;SDS011;14721;42.668;23.386;2023-04-24T06:31:23;8.85;;;5.20;;
27209;SDS011;14721;42.668;23.386;2023-04-24T06:33:48;11.13;;;6.28;;
27209;SDS011;14721;42.668;23.386;2023-04-24T06:36:14;7.10;;;4.85;;
27209;SDS011;14721;42.668;23.386;2023-04-24T06:38:40;7.13;;;4.93;;
27209;SDS011;14721;42.668;23.386;2023-04-24T06:41:06;9.48;;;5.28;;
27209;SDS011;14721;42.668;23.386;2023-04-24T06:43:31;9.25;;;4.95;;
27209;SDS011;14721;42.668;23.386;2023-04-24T06:45:57;8.25;;;4.78;;
27209;SDS011;14721;42.668;23.386;2023-04-24T06:48:24;8.55;;;5.22;;
27209;SDS011;14721;42.668;23.386;2023-04-24T06:50:50;16.80;;;5.97;;
27209;SDS011;14721;42.668;23.386;2023-04-24T06:53:15;11.50;;;5.57;;
27209;SDS011;14721;42.668;23.386;2023-04-24T06:55:41;9.68;;;5.63;;
27209;SDS011;14721;42.668;23.386;2023-04-24T06:58:08;11.30;;;5.53;;
27209;SDS011;14721;42.668;23.386;2023-04-24T07:00:33;9.50;;;5.63;;
27209;SDS011;14721;42.668;23.386;2023-04-24T07:02:59;10.05;;;6.07;;
27209;SDS011;14721;42.668;23.386;2023-04-24T07:05:25;9.77;;;5.32;;
27209;SDS011;14721;42.668;23.386;2023-04-24T07:07:50;12.45;;;6.07;;
27209;SDS011;14721;42.668;23.386;2023-04-24T07:10:16;12.30;;;6.32;;
27209;SDS011;14721;42.668;23.386;2023-04-24T07:12:41;8.43;;;4.88;;
27209;SDS011;14721;42.668;23.386;2023-04-24T07:15:07;13.00;;;6.00;;
27209;SDS011;14721;42.668;23.386;2023-04-24T07:17:33;8.82;;;4.90;;
27209;SDS011;14721;42.668;23.386;2023-04-24T07:20:00;9.38;;;5.47;;
27209;SDS011;14721;42.668;23.386;2023-04-24T07:22:25;13.07;;;5.30;;
27209;SDS011;14721;42.668;23.386;2023-04-24T07:24:51;9.50;;;5.57;;
27209;SDS011;14721;42.668;23.386;2023-04-24T07:27:17;10.32;;;5.65;;
27209;SDS011;14721;42.668;23.386;2023-04-24T07:29:42;9.10;;;5.13;;
27209;SDS011;14721;42.668;23.386;2023-04-24T07:32:08;11.32;;;5.22;;
27209;SDS011;14721;42.668;23.386;2023-04-24T07:34:34;16.20;;;6.10;;
27209;SDS011;14721;42.668;23.386;2023-04-24T07:36:59;11.35;;;5.95;;
27209;SDS011;14721;42.668;23.386;2023-04-24T07:39:25;7.95;;;5.38;;
27209;SDS011;14721;42.668;23.386;2023-04-24T07:41:54;8.32;;;4.13;;
27209;SDS011;14721;42.668;23.386;2023-04-24T07:44:22;8.68;;;3.70;;
27209;SDS011;14721;42.668;23.386;2023-04-24T07:46:51;8.02;;;4.63;;
27209;SDS011;14721;42.668;23.386;2023-04-24T07:49:16;10.15;;;4.50;;
27209;SDS011;14721;42.668;23.386;2023-04-24T07:51:42;10.00;;;4.53;;
27209;SDS011;14721;42.668;23.386;2023-04-24T07:54:07;6.78;;;4.15;;
27209;SDS011;14721;42.668;23.386;2023-04-24T07:56:33;10.45;;;3.80;;
27209;SDS011;14721;42.668;23.386;2023-04-24T07:58:59;6.80;;;4.38;;
27209;SDS011;14721;42.668;23.386;2023-04-24T08:01:26;16.35;;;4.50;;
27209;SDS011;14721;42.668;23.386;2023-04-24T08:03:51;10.95;;;4.55;;
27209;SDS011;14721;42.668;23.386;2023-04-24T08:06:17;9.50;;;4.70;;
27209;SDS011;14721;42.668;23.386;2023-04-24T08:08:42;7.72;;;4.65;;
27209;SDS011;14721;42.668;23.386;2023-04-24T08:11:08;10.85;;;4.97;;
27209;SDS011;14721;42.668;23.386;2023-04-24T08:13:34;6.03;;;4.03;;
27209;SDS011;14721;42.668;23.386;2023-04-24T08:16:00;11.73;;;4.53;;
27209;SDS011;14721;42.668;23.386;2023-04-24T08:18:28;7.78;;;4.47;;
27209;SDS011;14721;42.668;23.386;2023-04-24T08:20:53;16.70;;;5.38;;
27209;SDS011;14721;42.668;23.386;2023-04-24T08:23:19;9.52;;;4.30;;
27209;SDS011;14721;42.668;23.386;2023-04-24T08:25:44;9.10;;;4.35;;
27209;SDS011;14721;42.668;23.386;2023-04-24T08:28:10;6.82;;;3.92;;
27209;SDS011;14721;42.668;23.386;2023-04-24T08:30:36;6.75;;;3.97;;
27209;SDS011;14721;42.668;23.386;2023-04-24T08:33:01;8.52;;;3.70;;
27209;SDS011;14721;42.668;23.386;2023-04-24T08:35:27;9.23;;;4.20;;
27209;SDS011;14721;42.668;23.386;2023-04-24T08:37:52;5.50;;;3.50;;
27209;SDS011;14721;42.668;23.386;2023-04-24T08:40:18;6.35;;;3.65;;
27209;SDS011;14721;42.668;23.386;2023-04-24T08:42:53;7.82;;;4.10;;
27209;SDS011;14721;42.668;23.386;2023-04-24T08:45:20;6.38;;;3.45;;
27209;SDS011;14721;42.668;23.386;2023-04-24T08:47:46;4.47;;;3.70;;
27209;SDS011;14721;42.668;23.386;2023-04-24T08:50:12;8.52;;;4.13;;
27209;SDS011;14721;42.668;23.386;2023-04-24T08:52:38;7.32;;;2.95;;
27209;SDS011;14721;42.668;23.386;2023-04-24T08:55:03;6.63;;;3.38;;
27209;SDS011;14721;42.668;23.386;2023-04-24T08:57:30;6.20;;;3.90;;
27209;SDS011;14721;42.668;23.386;2023-04-24T08:59:56;9.35;;;3.75;;
27209;SDS011;14721;42.668;23.386;2023-04-24T09:02:23;4.63;;;3.50;;
27209;SDS011;14721;42.668;23.386;2023-04-24T09:04:49;5.50;;;3.13;;
27209;SDS011;14721;42.668;23.386;2023-04-24T09:07:16;5.00;;;3.33;;
27209;SDS011;14721;42.668;23.386;2023-04-24T09:09:44;7.78;;;3.60;;
27209;SDS011;14721;42.668;23.386;2023-04-24T09:12:10;6.75;;;4.13;;
27209;SDS011;14721;42.668;23.386;2023-04-24T09:14:36;9.55;;;3.30;;
27209;SDS011;14721;42.668;23.386;2023-04-24T09:17:07;6.43;;;3.83;;
27209;SDS011;14721;42.668;23.386;2023-04-24T09:19:33;7.38;;;4.32;;
27209;SDS011;14721;42.668;23.386;2023-04-24T09:21:58;8.57;;;3.85;;
27209;SDS011;14721;42.668;23.386;2023-04-24T09:24:24;11.95;;;5.05;;
27209;SDS011;14721;42.668;23.386;2023-04-24T09:26:55;6.55;;;3.30;;
27209;SDS011;14721;42.668;23.386;2023-04-24T09:29:24;6.78;;;3.38;;
27209;SDS011;14721;42.668;23.386;2023-04-24T09:31:50;5.72;;;3.38;;
27209;SDS011;14721;42.668;23.386;2023-04-24T09:34:20;7.07;;;3.58;;
27209;SDS011;14721;42.668;23.386;2023-04-24T09:36:51;6.38;;;3.30;;
27209;SDS011;14721;42.668;23.386;2023-04-24T09:39:17;6.57;;;3.67;;
27209;SDS011;14721;42.668;23.386;2023-04-24T09:44:15;6.78;;;3.33;;
27209;SDS011;14721;42.668;23.386;2023-04-24T09:46:43;8.18;;;3.78;;
27209;SDS011;14721;42.668;23.386;2023-04-24T09:49:14;7.07;;;3.80;;
27209;SDS011;14721;42.668;23.386;2023-04-24T09:51:41;7.80;;;3.85;;
27209;SDS011;14721;42.668;23.386;2023-04-24T09:54:20;7.78;;;4.20;;
27209;SDS011;14721;42.668;23.386;2023-04-24T09:56:49;8.68;;;3.88;;
27209;SDS011;14721;42.668;23.386;2023-04-24T09:59:16;42.03;;;6.03;;
27209;SDS011;14721;42.668;23.386;2023-04-24T10:01:43;5.70;;;3.30;;
27209;SDS011;14721;42.668;23.386;2023-04-24T10:06:43;6.88;;;3.60;;
27209;SDS011;14721;42.668;23.386;2023-04-24T10:09:09;4.32;;;2.97;;
27209;SDS011;14721;42.668;23.386;2023-04-24T10:11:37;5.38;;;3.20;;
27209;SDS011;14721;42.668;23.386;2023-04-24T10:14:07;5.55;;;3.42;;
27209;SDS011;14721;42.668;23.386;2023-04-24T10:16:35;5.47;;;3.45;;
27209;SDS011;14721;42.668;23.386;2023-04-24T10:19:02;6.90;;;3.60;;
27209;SDS011;14721;42.668;23.386;2023-04-24T10:21:28;7.45;;;3.50;;
27209;SDS011;14721;42.668;23.386;2023-04-24T10:23:55;5.60;;;3.28;;
27209;SDS011;14721;42.668;23.386;2023-04-24T10:26:21;4.82;;;3.47;;
27209;SDS011;14721;42.668;23.386;2023-04-24T10:28:47;12.15;;;4.38;;
27209;SDS011;14721;42.668;23.386;2023-04-24T10:31:14;4.75;;;3.60;;
27209;SDS011;14721;42.668;23.386;2023-04-24T10:33:43;7.00;;;3.83;;
27209;SDS011;14721;42.668;23.386;2023-04-24T10:36:10;5.32;;;3.20;;
27209;SDS011;14721;42.668;23.386;2023-04-24T10:38:39;8.38;;;3.65;;
27209;SDS011;14721;42.668;23.386;2023-04-24T10:41:07;8.43;;;3.67;;
27209;SDS011;14721;42.668;23.386;2023-04-24T10:43:34;7.55;;;3.78;;
27209;SDS011;14721;42.668;23.386;2023-04-24T10:46:01;10.63;;;3.97;;
27209;SDS011;14721;42.668;23.386;2023-04-24T10:48:28;9.77;;;3.60;;
27209;SDS011;14721;42.668;23.386;2023-04-24T10:50:54;7.50;;;3.95;;
27209;SDS011;14721;42.668;23.386;2023-04-24T10:53:20;5.70;;;3.22;;
27209;SDS011;14721;42.668;23.386;2023-04-24T10:56:12;7.55;;;3.45;;
27209;SDS011;14721;42.668;23.386;2023-04-24T10:58:40;4.45;;;3.15;;
27209;SDS011;14721;42.668;23.386;2023-04-24T11:01:09;7.47;;;3.47;;
27209;SDS011;14721;42.668;23.386;2023-04-24T11:04:00;9.23;;;3.25;;
27209;SDS011;14721;42.668;23.386;2023-04-24T11:06:34;6.25;;;3.10;;
27209;SDS011;14721;42.668;23.386;2023-04-24T11:09:07;4.60;;;2.70;;
27209;SDS011;14721;42.668;23.386;2023-04-24T11:11:34;10.15;;;5.72;;
27209;SDS011;14721;42.668;23.386;2023-04-24T11:14:03;8.10;;;3.55;;
27209;SDS011;14721;42.668;23.386;2023-04-24T11:19:06;6.75;;;2.95;;
27209;SDS011;14721;42.668;23.386;2023-04-24T11:26:56;5.38;;;3.25;;
27209;SDS011;14721;42.668;23.386;2023-04-24T11:29:37;6.25;;;3.08;;
27209;SDS011;14721;42.668;23.386;2023-04-24T11:34:54;10.60;;;3.33;;
27209;SDS011;14721;42.668;23.386;2023-04-24T11:37:22;10.35;;;2.88;;
27209;SDS011;14721;42.668;23.386;2023-04-24T11:39:53;11.80;;;3.45;;
27209;SDS011;14721;42.668;23.386;2023-04-24T11:42:20;4.55;;;2.75;;
27209;SDS011;14721;42.668;23.386;2023-04-24T11:44:47;5.60;;;3.38;;
27209;SDS011;14721;42.668;23.386;2023-04-24T11:47:15;6.65;;;3.58;;
27209;SDS011;14721;42.668;23.386;2023-04-24T11:49:40;8.80;;;3.20;;
27209;SDS011;14721;42.668;23.386;2023-04-24T11:52:06;11.52;;;2.92;;
27209;SDS011;14721;42.668;23.386;2023-04-24T11:54:32;5.45;;;2.92;;
27209;SDS011;14721;42.668;23.386;2023-04-24T11:56:57;4.50;;;2.90;;
27209;SDS011;14721;42.668;23.386;2023-04-24T11:59:23;7.03;;;3.53;;
27209;SDS011;14721;42.668;23.386;2023-04-24T12:01:49;7.43;;;3.22;;
27209;SDS011;14721;42.668;23.386;2023-04-24T12:04:16;5.07;;;3.40;;
27209;SDS011;14721;42.668;23.386;2023-04-24T12:07:02;4.22;;;2.75;;
27209;SDS011;14721;42.668;23.386;2023-04-24T12:09:28;4.78;;;3.70;;
27209;SDS011;14721;42.668;23.386;2023-04-24T12:11:54;3.88;;;3.00;;
27209;SDS011;14721;42.668;23.386;2023-04-24T12:14:23;3.97;;;2.97;;
27209;SDS011;14721;42.668;23.386;2023-04-24T12:16:52;4.60;;;3.17;;
27209;SDS011;14721;42.668;23.386;2023-04-24T12:19:21;6.03;;;2.72;;
27209;SDS011;14721;42.668;23.386;2023-04-24T12:22:00;5.53;;;2.38;;
27209;SDS011;14721;42.668;23.386;2023-04-24T12:24:27;4.05;;;2.67;;
27209;SDS011;14721;42.668;23.386;2023-04-24T12:26:53;5.32;;;2.53;;
27209;SDS011;14721;42.668;23.386;2023-04-24T12:29:20;3.97;;;2.72;;
27209;SDS011;14721;42.668;23.386;2023-04-24T12:31:46;3.88;;;2.78;;
27209;SDS011;14721;42.668;23.386;2023-04-24T12:34:18;5.38;;;3.13;;
27209;SDS011;14721;42.668;23.386;2023-04-24T12:36:45;7.10;;;2.60;;
27209;SDS011;14721;42.668;23.386;2023-04-24T12:39:18;3.70;;;2.67;;
27209;SDS011;14721;42.668;23.386;2023-04-24T12:41:55;5.35;;;3.10;;
27209;SDS011;14721;42.668;23.386;2023-04-24T12:44:31;4.30;;;2.92;;
27209;SDS011;14721;42.668;23.386;2023-04-24T12:46:59;7.20;;;2.60;;
27209;SDS011;14721;42.668;23.386;2023-04-24T12:49:25;3.95;;;2.47;;
27209;SDS011;14721;42.668;23.386;2023-04-24T12:51:51;4.25;;;2.72;;
27209;SDS011;14721;42.668;23.386;2023-04-24T12:54:17;4.68;;;2.40;;
27209;SDS011;14721;42.668;23.386;2023-04-24T12:56:42;5.72;;;2.40;;
27209;SDS011;14721;42.668;23.386;2023-04-24T12:59:08;4.07;;;2.45;;
27209;SDS011;14721;42.668;23.386;2023-04-24T13:01:33;4.40;;;2.60;;
27209;SDS011;14721;42.668;23.386;2023-04-24T13:03:59;3.53;;;2.60;;
27209;SDS011;14721;42.668;23.386;2023-04-24T13:06:24;6.10;;;2.55;;
27209;SDS011;14721;42.668;23.386;2023-04-24T13:08:51;6.70;;;3.15;;
27209;SDS011;14721;42.668;23.386;2023-04-24T13:11:17;4.00;;;2.65;;
27209;SDS011;14721;42.668;23.386;2023-04-24T13:13:43;4.13;;;3.15;;
27209;SDS011;14721;42.668;23.386;2023-04-24T13:16:08;4.43;;;2.72;;
27209;SDS011;14721;42.668;23.386;2023-04-24T13:18:37;4.38;;;2.75;;
27209;SDS011;14721;42.668;23.386;2023-04-24T13:21:02;4.20;;;2.67;;
27209;SDS011;14721;42.668;23.386;2023-04-24T13:23:28;5.00;;;3.28;;
27209;SDS011;14721;42.668;23.386;2023-04-24T13:25:54;6.15;;;2.88;;
27209;SDS011;14721;42.668;23.386;2023-04-24T13:28:22;4.47;;;3.15;;
27209;SDS011;14721;42.668;23.386;2023-04-24T13:30:48;11.18;;;3.33;;
27209;SDS011;14721;42.668;23.386;2023-04-24T13:33:14;5.22;;;2.83;;
27209;SDS011;14721;42.668;23.386;2023-04-24T13:35:39;5.68;;;3.50;;
27209;SDS011;14721;42.668;23.386;2023-04-24T13:38:05;4.60;;;3.03;;
27209;SDS011;14721;42.668;23.386;2023-04-24T13:40:31;6.75;;;3.22;;
27209;SDS011;14721;42.668;23.386;2023-04-24T13:42:57;6.57;;;3.70;;
27209;SDS011;14721;42.668;23.386;2023-04-24T13:45:23;4.82;;;3.33;;
27209;SDS011;14721;42.668;23.386;2023-04-24T13:47:48;9.25;;;3.58;;
27209;SDS011;14721;42.668;23.386;2023-04-24T13:50:14;5.93;;;3.25;;
27209;SDS011;14721;42.668;23.386;2023-04-24T13:52:40;6.38;;;3.65;;
27209;SDS011;14721;42.668;23.386;2023-04-24T13:55:05;4.60;;;3.03;;
27209;SDS011;14721;42.668;23.386;2023-04-24T13:57:31;9.98;;;3.20;;
27209;SDS011;14721;42.668;23.386;2023-04-24T13:59:57;13.93;;;3.70;;
27209;SDS011;14721;42.668;23.386;2023-04-24T14:02:26;7.97;;;3.20;;
27209;SDS011;14721;42.668;23.386;2023-04-24T14:04:52;3.88;;;3.15;;
27209;SDS011;14721;42.668;23.386;2023-04-24T14:07:18;5.75;;;3.47;;
27209;SDS011;14721;42.668;23.386;2023-04-24T14:09:43;4.95;;;3.05;;
27209;SDS011;14721;42.668;23.386;2023-04-24T14:12:09;6.65;;;2.72;;
27209;SDS011;14721;42.668;23.386;2023-04-24T14:14:35;5.65;;;2.75;;
27209;SDS011;14721;42.668;23.386;2023-04-24T14:17:01;3.67;;;2.70;;
27209;SDS011;14721;42.668;23.386;2023-04-24T14:19:26;5.25;;;2.55;;
27209;SDS011;14721;42.668;23.386;2023-04-24T14:21:51;4.88;;;2.42;;
27209;SDS011;14721;42.668;23.386;2023-04-24T14:24:20;3.85;;;2.63;;
27209;SDS011;14721;42.668;23.386;2023-04-24T14:26:45;5.32;;;2.50;;
27209;SDS011;14721;42.668;23.386;2023-04-24T14:29:11;3.85;;;2.40;;
27209;SDS011;14721;42.668;23.386;2023-04-24T14:31:36;4.82;;;2.97;;
27209;SDS011;14721;42.668;23.386;2023-04-24T14:34:02;3.47;;;2.28;;
27209;SDS011;14721;42.668;23.386;2023-04-24T14:36:27;5.13;;;2.67;;
27209;SDS011;14721;42.668;23.386;2023-04-24T14:38:53;4.80;;;2.78;;
27209;SDS011;14721;42.668;23.386;2023-04-24T14:41:18;4.18;;;2.63;;
27209;SDS011;14721;42.668;23.386;2023-04-24T14:43:44;4.80;;;2.97;;